Time;durP1;ratioP1;P1;durP2;ratioP2;P2;SDS_P1;SDS_P2;PMS_P1;PMS_P2;Temp;Humidity;BMP_temperature;BMP_pressure;BME280_temperature;BME280_humidity;BME280_pressure;Samples;Min_cycle;Max_cycle;Signal;HPM_P1;HPM_P2
2023/10/11 00:03:32;;;;;;;4.50;1.90;;;;;;;3.03;73.70;100182.77;78197;1300;3052242;-69
2023/10/11 00:06:02;;;;;;;3.30;2.40;;;;;;;3.66;71.69;100183.98;78226;1300;3052645;-69
2023/10/11 00:08:41;;;;;;;5.70;2.80;;;;;;;4.15;69.89;100182.77;79550;1300;3013502;-73
2023/10/11 00:11:09;;;;;;;8.70;2.40;;;;;;;4.11;69.32;100187.87;78284;1301;3051949;-67
2023/10/11 00:13:36;;;;;;;4.30;2.50;;;;;;;3.92;69.89;100189.69;79280;1298;3020773;-71
2023/10/11 00:16:07;;;;;;;9.20;3.00;;;;;;;3.79;70.08;100191.85;79329;1301;3013001;-70
2023/10/11 00:18:36;;;;;;;4.90;2.70;;;;;;;3.57;70.80;100192.46;78270;1300;3049662;-73
2023/10/11 00:21:15;;;;;;;5.10;2.70;;;;;;;3.39;71.39;100195.61;79551;1300;3011529;-65
2023/10/11 00:23:45;;;;;;;5.60;2.80;;;;;;;3.28;71.96;100203.95;78106;1295;3069936;-67
2023/10/11 00:26:14;;;;;;;5.00;2.80;;;;;;;3.25;72.02;100204.55;79562;1295;3012605;-68
2023/10/11 00:28:43;;;;;;;3.90;2.30;;;;;;;3.13;72.37;100206.98;78224;1301;3056934;-66
2023/10/11 00:31:16;;;;;;;5.80;2.90;;;;;;;3.04;72.55;100214.08;79359;1298;3020651;-69
2023/10/11 00:33:45;;;;;;;4.90;2.40;;;;;;;3.01;73.07;100214.48;78028;1299;3049922;-70
2023/10/11 00:36:11;;;;;;;4.60;2.40;;;;;;;2.97;73.22;100216.29;79421;1300;3013499;-70
2023/10/11 00:38:49;;;;;;;4.90;2.60;;;;;;;3.02;72.83;100218.44;79365;1295;3011570;-70
2023/10/11 00:41:17;;;;;;;5.40;2.30;;;;;;;3.01;73.05;100220.89;78237;1295;3052192;-69
2023/10/11 00:43:54;;;;;;;7.10;2.90;;;;;;;2.91;73.31;100225.91;79456;1301;3018833;-64
2023/10/11 00:46:27;;;;;;;5.70;2.50;;;;;;;2.87;73.38;100231.01;78160;1295;3053663;-72
2023/10/11 00:48:54;;;;;;;6.40;2.40;;;;;;;2.83;73.59;100235.21;79310;1300;3011411;-68
2023/10/11 00:51:26;;;;;;;5.00;3.00;;;;;;;2.84;73.60;100241.24;78185;1301;3053309;-69
2023/10/11 00:53:52;;;;;;;6.30;2.50;;;;;;;2.79;73.76;100244.79;79577;1301;3011732;-71
2023/10/11 00:56:21;;;;;;;7.00;2.80;;;;;;;2.72;73.72;100247.83;78301;1295;3027279;-73
2023/10/11 00:58:49;;;;;;;7.00;3.10;;;;;;;2.66;74.11;100252.09;79608;1295;3012892;-72
2023/10/11 01:01:17;;;;;;;4.00;3.10;;;;;;;2.68;74.15;100257.77;79478;1295;3011752;-72
2023/10/11 01:03:45;;;;;;;4.00;2.00;;;;;;;2.62;74.70;100258.37;78276;1295;3053522;-68
2023/10/11 01:06:12;;;;;;;5.20;2.60;;;;;;;3.06;73.86;100258.36;79503;1295;3019265;-67
2023/10/11 01:08:39;;;;;;;6.40;3.10;;;;;;;3.69;71.64;100261.54;79447;1298;3013640;-71
2023/10/11 01:11:13;;;;;;;5.50;2.60;;;;;;;3.77;70.56;100263.13;78258;1298;3026267;-66
2023/10/11 01:13:40;;;;;;;5.40;2.80;;;;;;;3.61;70.54;100263.08;79547;1295;3011880;-73
2023/10/11 01:16:11;;;;;;;7.20;3.20;;;;;;;3.43;71.04;100265.49;78272;1298;3055987;-65
2023/10/11 01:18:39;;;;;;;5.50;3.00;;;;;;;3.29;71.60;100272.33;79383;1295;3011706;-68
2023/10/11 01:21:07;;;;;;;4.80;2.50;;;;;;;3.10;72.20;100276.48;78087;1301;3028741;-66
2023/10/11 01:23:34;;;;;;;7.40;2.60;;;;;;;2.95;72.92;100279.30;79327;1300;3015109;-71
2023/10/11 01:26:07;;;;;;;6.30;3.30;;;;;;;2.80;73.39;100286.48;79437;1300;3012825;-70
2023/10/11 01:28:38;;;;;;;7.70;3.50;;;;;;;2.64;73.79;100293.46;78164;1301;3069477;-74
2023/10/11 01:31:11;;;;;;;5.80;3.10;;;;;;;2.53;74.50;100297.25;79310;1300;3011726;-72
2023/10/11 01:33:41;;;;;;;4.70;2.70;;;;;;;2.40;75.05;100297.95;78168;1295;3056772;-75
2023/10/11 01:36:09;;;;;;;3.60;2.40;;;;;;;2.27;75.51;100303.31;79516;1295;3012721;-66
2023/10/11 01:39:22;;;;;;;5.60;3.20;;;;;;;2.24;75.72;100302.67;78956;1295;3011950;-72
2023/10/11 01:41:31;;;;;;;6.30;3.20;;;;;;;2.21;75.96;100305.46;78113;1300;3049959;-68
2023/10/11 01:43:57;;;;;;;6.00;2.80;;;;;;;2.22;76.16;100307.19;79495;1298;3013025;-65
2023/10/11 01:46:26;;;;;;;4.00;2.10;;;;;;;2.23;76.27;100306.30;79471;1294;3011859;-70
2023/10/11 01:48:55;;;;;;;7.40;2.20;;;;;;;2.77;74.99;100308.14;78390;1298;3050872;-71
2023/10/11 01:51:28;;;;;;;6.00;2.30;;;;;;;3.43;72.43;100303.09;79573;1295;3014649;-71
2023/10/11 01:53:57;;;;;;;;;;;;;;;3.45;71.47;100308.23;78342;1294;3052518;-69
2023/10/11 01:56:24;;;;;;;5.70;2.50;;;;;;;3.32;71.77;100308.65;79558;1298;3013072;-76
2023/10/11 01:58:51;;;;;;;3.70;2.30;;;;;;;3.17;71.89;100316.86;79611;1300;3013361;-68
2023/10/11 02:01:21;;;;;;;6.20;2.40;;;;;;;2.96;72.50;100316.86;78131;1301;3070035;-69
2023/10/11 02:03:56;;;;;;;4.60;2.40;;;;;;;2.77;73.21;100320.42;79594;1295;3012962;-70
2023/10/11 02:06:25;;;;;;;4.20;2.90;;;;;;;2.64;73.55;100324.09;78302;1298;3057074;-70
2023/10/11 02:08:52;;;;;;;3.90;2.50;;;;;;;2.55;73.86;100328.02;79702;1298;3013178;-67
2023/10/11 02:11:25;;;;;;;3.60;2.30;;;;;;;2.50;74.13;100327.22;79434;1295;3013671;-71
2023/10/11 02:13:53;;;;;;;5.90;2.60;;;;;;;2.37;74.91;100333.45;78236;1295;3052164;-70
2023/10/11 02:16:19;;;;;;;4.40;2.40;;;;;;;2.33;75.16;100338.52;79400;1300;3013184;-71
2023/10/11 02:19:09;;;;;;;5.60;3.00;;;;;;;2.39;75.00;100340.85;79593;1295;3013330;-66
2023/10/11 02:21:36;;;;;;;10.40;2.70;;;;;;;2.41;74.66;100343.41;78285;1294;3059129;-67
2023/10/11 02:24:04;;;;;;;4.90;2.60;;;;;;;2.37;74.94;100349.85;79711;1296;3011815;-65
2023/10/11 02:26:35;;;;;;;5.30;2.90;;;;;;;2.39;74.82;100355.04;78900;1298;3012974;-69
2023/10/11 02:29:16;;;;;;;4.90;2.40;;;;;;;2.41;74.72;100359.17;79538;1300;3011561;-64
2023/10/11 02:31:44;;;;;;;8.10;2.70;;;;;;;2.32;75.03;100364.79;78190;1298;3052583;-70
2023/10/11 02:34:13;;;;;;;4.80;2.90;;;;;;;2.29;75.33;100361.38;79539;1298;3018417;-66
2023/10/11 02:36:43;;;;;;;3.90;1.70;;;;;;;2.29;75.08;100362.42;79470;1294;3011852;-70
2023/10/11 02:39:18;;;;;;;4.80;2.30;;;;;;;2.90;74.14;100367.98;78368;1298;3057973;-65
2023/10/11 02:41:50;;;;;;;6.10;3.30;;;;;;;3.61;71.46;100369.27;79015;1298;3011671;-67
2023/10/11 02:44:16;;;;;;;8.30;3.10;;;;;;;3.71;70.50;100375.86;79492;1295;3011685;-68
2023/10/11 02:46:45;;;;;;;9.90;4.80;;;;;;;3.55;70.28;100373.89;79012;1295;3012991;-69
2023/10/11 02:49:20;;;;;;;5.00;3.10;;;;;;;3.38;70.66;100382.15;79572;1295;3013548;-68
2023/10/11 02:52:05;;;;;;;5.80;3.10;;;;;;;3.15;71.34;100390.30;78381;1298;3052770;-69
2023/10/11 02:54:39;;;;;;;7.30;3.50;;;;;;;3.05;71.78;100392.18;78178;1300;3069318;-67
2023/10/11 02:57:06;;;;;;;6.30;3.50;;;;;;;2.94;72.03;100399.63;79712;1295;3011264;-73
2023/10/11 02:59:34;;;;;;;7.90;3.60;;;;;;;2.80;72.56;100402.23;78422;1296;3056058;-66
2023/10/11 03:02:01;;;;;;;6.90;3.80;;;;;;;2.69;72.98;100408.08;79625;1294;3015774;-70
2023/10/11 03:04:43;;;;;;;4.70;2.80;;;;;;;2.59;73.59;100410.64;79544;1295;3011948;-68
2023/10/11 03:07:15;;;;;;;6.20;3.40;;;;;;;2.51;73.99;100409.53;78380;1298;3053159;-66
2023/10/11 03:09:42;;;;;;;6.50;3.50;;;;;;;2.49;74.10;100416.12;79663;1298;3013105;-69
2023/10/11 03:12:24;;;;;;;6.40;3.80;;;;;;;2.45;74.03;100415.13;78203;1295;3026593;-71
2023/10/11 03:14:54;;;;;;;4.60;3.00;;;;;;;2.42;74.30;100419.48;78430;1298;3051687;-71
2023/10/11 03:17:22;;;;;;;5.10;2.90;;;;;;;2.40;74.28;100423.84;79648;1295;3011937;-71
2023/10/11 03:19:52;;;;;;;6.70;3.20;;;;;;;2.30;74.87;100425.34;78937;1298;3011972;-64
2023/10/11 03:22:19;;;;;;;5.40;3.40;;;;;;;2.29;74.69;100433.47;79543;1296;3013628;-68
2023/10/11 03:24:53;;;;;;;4.10;2.80;;;;;;;2.18;75.22;100433.23;79747;1295;3011550;-65
2023/10/11 03:27:23;;;;;;;5.10;3.00;;;;;;;2.12;75.76;100439.02;78286;1296;3053156;-67
2023/10/11 03:29:52;;;;;;;4.50;2.20;;;;;;;2.06;76.32;100443.90;79366;1295;3013029;-68
2023/10/11 03:32:24;;;;;;;6.20;2.60;;;;;;;2.63;75.13;100443.79;78184;1300;3051607;-69
2023/10/11 03:34:51;;;;;;;5.10;2.30;;;;;;;3.24;72.54;100441.77;79397;1295;3011584;-70
2023/10/11 03:37:19;;;;;;;5.40;2.80;;;;;;;3.34;71.74;100443.70;78158;1297;3050206;-67
2023/10/11 03:39:55;;;;;;;4.30;2.70;;;;;;;3.17;71.72;100448.10;79481;1301;3021257;-68
2023/10/11 03:42:53;;;;;;;6.50;2.80;;;;;;;3.04;72.16;100451.05;78240;1301;3053218;-69
2023/10/11 03:45:27;;;;;;;6.70;2.80;;;;;;;2.89;72.45;100455.76;78209;1301;3051174;-68
2023/10/11 03:47:56;;;;;;;4.10;2.20;;;;;;;2.82;72.33;100464.50;79454;1295;3011571;-67
2023/10/11 03:50:34;;;;;;;6.20;2.90;;;;;;;2.80;72.30;100471.45;78972;1295;3049722;-69
2023/10/11 03:53:11;;;;;;;5.60;3.00;;;;;;;2.70;72.18;100475.70;79064;1295;3056052;-65
2023/10/11 03:55:49;;;;;;;5.30;2.30;;;;;;;2.70;72.15;100483.16;78148;1298;3049961;-70
2023/10/11 04:01:05;;;;;;;6.80;3.00;;;;;;;2.60;71.89;100491.58;78423;1298;3050497;-73
2023/10/11 04:03:38;;;;;;;4.20;2.70;;;;;;;2.54;71.88;100499.42;78476;1294;3052643;-65
2023/10/11 04:06:13;;;;;;;7.20;3.00;;;;;;;2.50;71.91;100495.15;79653;1296;3012168;-70
2023/10/11 04:08:43;;;;;;;4.60;2.70;;;;;;;2.54;71.56;100498.56;78390;1295;3069354;-70
2023/10/11 04:11:22;;;;;;;6.10;2.90;;;;;;;2.53;71.50;100499.61;79741;1295;3012922;-66
2023/10/11 04:13:50;;;;;;;4.90;2.40;;;;;;;2.53;71.01;100506.36;78535;1298;3057141;-64
2023/10/11 04:16:17;;;;;;;9.00;3.50;;;;;;;2.51;70.74;100512.42;79691;1294;3019616;-64
2023/10/11 04:18:44;;;;;;;9.20;4.70;;;;;;;2.59;70.77;100514.42;79873;1294;3011581;-67
2023/10/11 04:21:25;;;;;;;12.30;4.50;;;;;;;2.63;70.69;100514.55;78309;1298;3025999;-72
2023/10/11 04:23:55;;;;;;;14.70;6.10;;;;;;;2.67;70.49;100517.97;78438;1298;3054106;-67
2023/10/11 04:26:53;;;;;;;9.60;5.10;;;;;;;2.68;70.40;100521.06;79636;1298;3013266;-73
2023/10/11 04:29:17;;;;;;;8.00;3.80;;;;;;;2.67;70.32;100527.84;78408;1298;3052214;-66
2023/10/11 04:32:09;;;;;;;7.50;3.50;;;;;;;2.63;70.27;100527.36;79422;1298;3011905;-71
2023/10/11 04:34:32;;;;;;;8.20;3.40;;;;;;;2.60;70.21;100530.66;78402;1298;3049823;-74
2023/10/11 04:37:04;;;;;;;8.70;3.50;;;;;;;2.59;70.08;100538.82;79656;1295;3012959;-67
2023/10/11 04:39:49;;;;;;;8.50;3.40;;;;;;;2.64;70.10;100542.41;78652;1298;3053166;-69
2023/10/11 04:42:19;;;;;;;4.40;2.50;;;;;;;2.71;70.06;100539.03;78598;1298;3051821;-67
2023/10/11 04:44:54;;;;;;;5.40;3.20;;;;;;;2.78;69.91;100546.04;79601;1296;3012931;-67
2023/10/11 04:47:23;;;;;;;8.90;4.00;;;;;;;2.82;69.86;100546.34;78286;1296;3051089;-63
2023/10/11 04:49:54;;;;;;;9.30;4.20;;;;;;;2.91;69.69;100552.30;79694;1295;3013498;-71
2023/10/11 04:52:26;;;;;;;15.90;5.50;;;;;;;2.99;69.67;100551.86;78235;1296;3049111;-70
2023/10/11 04:54:53;;;;;;;14.30;6.60;;;;;;;3.05;69.73;100554.21;79704;1294;3011468;-72
2023/10/11 04:57:35;;;;;;;19.30;7.30;;;;;;;3.06;69.68;100557.32;78255;1298;3049710;-68
2023/10/11 05:00:08;;;;;;;21.10;6.60;;;;;;;3.10;69.48;100565.41;78586;1294;3052653;-74
2023/10/11 05:02:37;;;;;;;16.20;7.00;;;;;;;3.17;69.32;100567.73;79653;1298;3011633;-72
2023/10/11 05:05:10;;;;;;;15.80;7.20;;;;;;;3.22;69.27;100568.71;78511;1298;3067739;-69
2023/10/11 05:07:42;;;;;;;14.90;7.00;;;;;;;3.26;69.47;100575.75;79955;1296;3011146;-67
2023/10/11 05:10:30;;;;;;;16.80;8.50;;;;;;;3.34;69.75;100580.33;78389;1296;3056319;-70
2023/10/11 05:13:05;;;;;;;19.60;8.00;;;;;;;3.44;69.05;100586.96;78546;1296;3050798;-68
2023/10/11 05:15:42;;;;;;;20.60;7.70;;;;;;;3.43;68.86;100590.45;78392;1295;3052978;-72
2023/10/11 05:18:10;;;;;;;19.40;8.70;;;;;;;3.40;68.37;100591.17;78449;1298;3051221;-68
2023/10/11 05:23:06;;;;;;;18.50;9.10;;;;;;;3.46;68.08;100603.56;79569;1295;3011721;-73
2023/10/11 05:25:58;;;;;;;19.30;9.50;;;;;;;3.46;67.69;100607.55;78326;1298;3052426;-68
2023/10/11 05:28:27;;;;;;;19.80;10.00;;;;;;;3.57;67.15;100611.90;78340;1295;3056890;-68
2023/10/11 05:31:06;;;;;;;19.30;9.60;;;;;;;3.69;67.14;100615.55;79662;1295;3013720;-70
2023/10/11 05:53:01;;;;;;;16.70;8.10;;;;;;;4.32;63.18;100632.11;78345;1296;3053168;-70
2023/10/11 05:55:28;;;;;;;18.10;8.70;;;;;;;4.42;63.18;100633.00;79728;1298;3020493;-73
2023/10/11 05:57:55;;;;;;;21.90;8.80;;;;;;;4.55;63.08;100630.17;79469;1298;3013147;-69
2023/10/11 06:00:23;;;;;;;16.80;7.60;;;;;;;4.60;62.20;100630.44;78255;1295;3068483;-68
2023/10/11 06:02:52;;;;;;;15.50;7.20;;;;;;;4.70;62.35;100636.86;79490;1298;3019162;-67
2023/10/11 06:05:24;;;;;;;14.80;7.60;;;;;;;4.82;61.57;100644.96;79505;1295;3011615;-70
2023/10/11 06:08:03;;;;;;;17.20;6.90;;;;;;;4.96;60.46;100645.77;78442;1298;3053151;-69
2023/10/11 06:10:43;;;;;;;18.30;6.90;;;;;;;5.04;59.50;100649.77;78363;1298;3050711;-71
2023/10/11 06:13:14;;;;;;;18.10;6.50;;;;;;;5.15;59.39;100656.88;78225;1298;3052224;-69
2023/10/11 06:15:45;;;;;;;13.60;6.10;;;;;;;5.31;59.59;100659.01;79495;1298;3012221;-67
2023/10/11 06:18:38;;;;;;;13.10;5.70;;;;;;;5.40;57.24;100659.86;78170;1295;3071042;-70
2023/10/11 06:21:05;;;;;;;12.80;5.20;;;;;;;5.43;55.60;100661.70;78214;1298;3051497;-65
2023/10/11 06:23:33;;;;;;;10.00;5.20;;;;;;;5.57;55.95;100662.29;79557;1299;3012876;-64
2023/10/11 06:26:28;;;;;;;9.60;4.30;;;;;;;5.67;54.57;100669.37;78358;1298;3048316;-68
2023/10/11 06:28:48;;;;;;;7.90;3.60;;;;;;;5.82;53.57;100670.45;78410;1298;3054466;-66
2023/10/11 06:31:16;;;;;;;8.20;4.20;;;;;;;5.93;52.17;100668.83;79557;1308;3020619;-67
2023/10/11 06:33:45;;;;;;;12.80;4.70;;;;;;;6.00;51.50;100669.73;79600;1298;3011273;-68
2023/10/11 06:36:16;;;;;;;7.90;3.60;;;;;;;6.14;52.84;100671.85;78363;1298;3069422;-69
2023/10/11 06:38:43;;;;;;;12.40;4.10;;;;;;;6.26;52.03;100671.60;79572;1296;3012957;-70
2023/10/11 06:44:00;;;;;;;12.50;4.10;;;;;;;6.31;49.80;100678.95;78543;1298;3050334;-67
2023/10/11 06:46:27;;;;;;;9.30;4.10;;;;;;;6.34;49.50;100681.84;79609;1298;3013398;-66
2023/10/11 06:48:58;;;;;;;5.80;3.50;;;;;;;6.44;49.16;100686.30;79118;1298;3013309;-74
2023/10/11 06:51:25;;;;;;;7.80;3.60;;;;;;;6.49;49.30;100697.67;79573;1298;3011567;-64
2023/10/11 06:53:56;;;;;;;10.80;3.70;;;;;;;6.63;50.48;100696.63;79655;1295;3013111;-70
2023/10/11 06:56:27;;;;;;;7.50;4.20;;;;;;;6.77;50.65;100694.55;78358;1295;3051176;-69
2023/10/11 06:58:54;;;;;;;7.60;4.00;;;;;;;6.88;49.08;100691.84;79758;1298;3011943;-66
2023/10/11 07:01:23;;;;;;;8.20;3.90;;;;;;;6.95;47.75;100696.01;79006;1298;3011703;-69
2023/10/11 07:03:52;;;;;;;9.20;4.10;;;;;;;7.06;48.76;100692.22;79491;1298;3013030;-72
2023/10/11 07:06:22;;;;;;;11.30;4.00;;;;;;;7.16;47.96;100692.13;79630;1298;3011917;-70
2023/10/11 07:08:50;;;;;;;8.50;3.50;;;;;;;7.28;48.60;100692.16;78438;1298;3051341;-69
2023/10/11 07:11:50;;;;;;;10.20;4.00;;;;;;;7.38;46.27;100689.61;79743;1298;3020513;-67
2023/10/11 07:14:15;;;;;;;5.90;3.40;;;;;;;7.39;45.82;100693.60;78530;1298;3057444;-72
2023/10/11 07:16:42;;;;;;;7.50;4.10;;;;;;;7.47;47.35;100693.73;79628;1295;3011487;-65
2023/10/11 07:19:11;;;;;;;6.80;3.40;;;;;;;7.56;47.97;100691.04;78363;1298;3028146;-70
2023/10/11 07:21:53;;;;;;;8.40;3.20;;;;;;;7.49;46.94;100691.93;79503;1298;3013630;-70
2023/10/11 07:24:33;;;;;;;6.00;3.40;;;;;;;7.54;46.80;100694.05;78430;1298;3052125;-68
2023/10/11 07:27:08;;;;;;;5.70;2.90;;;;;;;7.59;46.20;100699.33;78318;1298;3070478;-67
2023/10/11 07:29:39;;;;;;;7.90;3.50;;;;;;;7.69;46.35;100701.66;79112;1295;3011893;-69
2023/10/11 07:32:09;;;;;;;5.80;2.70;;;;;;;7.66;44.80;100697.20;79580;1298;3011904;-69
2023/10/11 07:34:39;;;;;;;4.90;2.40;;;;;;;7.72;44.92;100695.80;78316;1298;3057443;-67
2023/10/11 07:37:06;;;;;;;4.00;2.10;;;;;;;7.77;44.34;100698.44;79676;1295;3012486;-70
2023/10/11 07:39:35;;;;;;;7.70;3.20;;;;;;;7.85;43.86;100699.95;79812;1298;3011946;-69
2023/10/11 07:44:31;;;;;;;6.60;2.90;;;;;;;7.90;43.67;100708.38;79471;1298;3020779;-68
2023/10/11 07:46:57;;;;;;;5.30;2.50;;;;;;;8.00;43.13;100710.66;79838;1294;3013299;-67
2023/10/11 07:49:25;;;;;;;4.30;2.50;;;;;;;8.11;42.90;100712.27;78487;1298;3056356;-68
2023/10/11 07:51:53;;;;;;;3.50;2.00;;;;;;;8.15;42.02;100716.00;79628;1298;3020822;-68
2023/10/11 07:54:20;;;;;;;5.70;2.20;;;;;;;8.22;41.82;100722.06;79637;1295;3011871;-64
2023/10/11 07:56:49;;;;;;;4.70;2.60;;;;;;;8.32;41.36;100727.70;78349;1298;3052602;-66
2023/10/11 07:59:15;;;;;;;3.20;1.80;;;;;;;8.35;40.82;100723.04;79709;1298;3011749;-66
2023/10/11 08:01:42;;;;;;;7.60;2.20;;;;;;;8.45;40.80;100729.75;79768;1298;3011433;-67
2023/10/11 08:04:17;;;;;;;6.70;2.10;;;;;;;8.57;40.55;100726.27;78512;1298;3056285;-71
2023/10/11 08:06:46;;;;;;;7.10;1.80;;;;;;;8.59;40.00;100728.29;79386;1298;3011742;-68
2023/10/11 08:09:18;;;;;;;4.10;2.00;;;;;;;8.70;40.17;100725.65;79662;1298;3013155;-68
2023/10/11 08:11:56;;;;;;;3.30;1.90;;;;;;;8.81;40.18;100724.58;78208;1298;3050698;-67
2023/10/11 08:14:30;;;;;;;4.20;1.80;;;;;;;8.90;39.89;100728.64;78239;1298;3053135;-65
2023/10/11 08:17:06;;;;;;;4.70;1.80;;;;;;;9.01;39.68;100732.98;78969;1301;3011950;-68
2023/10/11 08:19:32;;;;;;;7.10;2.60;;;;;;;9.00;39.00;100734.95;79606;1294;3011779;-68
2023/10/11 08:22:00;;;;;;;8.00;2.70;;;;;;;8.88;38.90;100729.24;78306;1298;3069448;-69
2023/10/11 08:24:36;;;;;;;3.20;2.10;;;;;;;8.98;39.74;100733.46;79785;1295;3011882;-64
2023/10/11 08:27:08;;;;;;;8.50;2.70;;;;;;;9.07;39.15;100736.48;78408;1294;3056673;-66
2023/10/11 08:29:35;;;;;;;4.60;2.00;;;;;;;9.09;39.18;100738.14;79529;1298;3011567;-69
2023/10/11 08:32:06;;;;;;;4.90;2.50;;;;;;;9.13;39.28;100742.36;78534;1298;3028614;-65
2023/10/11 08:34:32;;;;;;;4.80;2.60;;;;;;;9.15;39.39;100740.05;79791;1296;3011501;-66
2023/10/11 08:37:01;;;;;;;5.90;2.50;;;;;;;9.25;39.15;100741.09;79048;1298;3011643;-69
2023/10/11 08:39:42;;;;;;;5.20;2.10;;;;;;;9.39;39.03;100743.42;79576;1308;3013734;-68
2023/10/11 08:42:16;;;;;;;7.20;2.70;;;;;;;9.32;37.65;100747.52;78457;1300;3051043;-67
2023/10/11 08:44:45;;;;;;;7.00;2.70;;;;;;;9.18;36.76;100748.67;79047;1298;3011620;-72
2023/10/11 08:47:19;;;;;;;8.00;3.50;;;;;;;9.36;37.37;100750.16;79875;1294;3019153;-73
2023/10/11 08:49:50;;;;;;;5.60;2.80;;;;;;;9.48;36.37;100752.35;78533;1295;3052768;-73
2023/10/11 08:52:28;;;;;;;6.60;3.20;;;;;;;9.39;36.21;100758.63;79615;1302;3013425;-73
2023/10/11 08:54:58;;;;;;;9.10;3.50;;;;;;;9.27;36.32;100758.52;78638;1298;3053935;-68
2023/10/11 08:57:25;;;;;;;7.00;3.30;;;;;;;9.33;36.34;100756.91;79741;1295;3013300;-73
2023/10/11 08:59:56;;;;;;;12.30;3.40;;;;;;;9.54;36.72;100757.39;79805;1298;3011877;-65
2023/10/11 09:02:26;;;;;;;6.70;2.90;;;;;;;9.69;36.29;100753.19;78458;1298;3056629;-68
2023/10/11 09:04:59;;;;;;;6.60;2.90;;;;;;;9.77;35.48;100754.45;79852;1295;3013277;-68
2023/10/11 09:07:44;;;;;;;9.10;3.60;;;;;;;9.84;35.86;100755.25;78568;1298;3052648;-67
2023/10/11 09:10:26;;;;;;;8.20;3.20;;;;;;;10.03;35.86;100752.66;78195;1299;3050350;-69
2023/10/11 09:12:58;;;;;;;9.40;4.10;;;;;;;9.92;36.28;100752.71;78493;1295;3052721;-72
2023/10/11 09:15:45;;;;;;;10.10;4.20;;;;;;;9.98;35.72;100748.64;79642;1298;3011440;-65
2023/10/11 09:18:16;;;;;;;9.60;4.00;;;;;;;9.89;35.42;100748.60;78495;1298;3069798;-70
2023/10/11 09:20:49;;;;;;;11.90;3.80;;;;;;;9.93;36.04;100747.04;79923;1296;3013268;-70
2023/10/11 09:23:21;;;;;;;12.10;4.40;;;;;;;10.05;35.34;100741.34;78795;1298;3057361;-67
2023/10/11 09:26:00;;;;;;;8.60;4.40;;;;;;;10.11;35.02;100735.34;79859;1298;3011586;-73
2023/10/11 09:28:29;;;;;;;6.60;3.80;;;;;;;10.04;34.53;100738.05;78599;1299;3053716;-74
2023/10/11 09:31:21;;;;;;;11.70;4.10;;;;;;;10.16;34.92;100733.39;80104;1298;3011493;-74
2023/10/11 09:33:52;;;;;;;6.90;3.40;;;;;;;10.16;34.77;100733.04;78716;1298;3052055;-65
2023/10/11 09:36:25;;;;;;;9.00;3.90;;;;;;;10.27;34.96;100735.11;79621;1300;3013201;-68
2023/10/11 09:38:56;;;;;;;10.90;3.90;;;;;;;10.32;34.57;100733.83;78296;1295;3052201;-68
2023/10/11 09:41:24;;;;;;;7.50;4.40;;;;;;;10.29;34.59;100730.83;79736;1294;3011942;-70
2023/10/11 09:43:56;;;;;;;10.10;4.70;;;;;;;10.35;34.47;100724.45;78544;1298;3025477;-76
2023/10/11 09:46:30;;;;;;;11.50;4.90;;;;;;;10.38;34.26;100724.67;79691;1298;3012156;-69
2023/10/11 09:49:02;;;;;;;9.50;4.60;;;;;;;10.47;33.99;100722.59;78091;1298;3052342;-71
2023/10/11 09:51:30;;;;;;;12.70;4.90;;;;;;;10.60;33.61;100721.02;79543;1299;3013116;-76
2023/10/11 09:54:16;;;;;;;11.30;5.20;;;;;;;10.63;34.47;100718.09;78239;1298;3051507;-67
2023/10/11 09:57:24;;;;;;;10.90;4.70;;;;;;;10.68;33.90;100715.42;78306;1295;3067939;-65
2023/10/11 10:00:34;;;;;;;10.60;4.10;;;;;;;10.53;33.88;100712.20;78351;1298;3052116;-69
2023/10/11 10:03:04;;;;;;;12.50;4.90;;;;;;;10.73;33.84;100709.96;78378;1295;3056304;-67
2023/10/11 10:06:05;;;;;;;9.50;4.30;;;;;;;10.87;33.33;100701.33;79499;1296;3011645;-70
2023/10/11 10:08:33;;;;;;;11.50;4.70;;;;;;;10.91;32.69;100696.27;78587;1294;3053485;-71
2023/10/11 10:11:02;;;;;;;10.40;4.60;;;;;;;11.09;33.60;100691.99;79698;1295;3013724;-73
2023/10/11 10:13:30;;;;;;;11.70;4.50;;;;;;;11.26;33.86;100688.80;79732;1298;3013516;-69
2023/10/11 10:15:59;;;;;;;12.20;4.50;;;;;;;11.33;34.59;100687.08;78233;1295;3071103;-70
2023/10/11 10:18:27;;;;;;;7.70;3.90;;;;;;;11.49;34.71;100689.52;79588;1295;3011830;-73
2023/10/11 10:21:04;;;;;;;11.80;4.50;;;;;;;11.50;34.35;100688.09;79684;1295;3011655;-73
2023/10/11 10:23:37;;;;;;;10.30;4.50;;;;;;;11.58;34.87;100685.98;78457;1298;3055213;-69
2023/10/11 10:26:04;;;;;;;10.80;5.30;;;;;;;11.67;34.46;100688.02;79733;1295;3011841;-74
2023/10/11 10:28:34;;;;;;;15.20;5.30;;;;;;;11.45;33.92;100688.83;78622;1298;3052352;-69
2023/10/11 10:31:24;;;;;;;8.10;4.70;;;;;;;11.40;33.69;100685.91;79516;1298;3012858;-67
2023/10/11 10:34:04;;;;;;;8.60;4.30;;;;;;;11.65;33.93;100688.46;78684;1298;3070709;-66
2023/10/11 10:36:33;;;;;;;8.50;3.90;;;;;;;11.78;33.57;100679.79;78561;1298;3051590;-74
2023/10/11 10:39:00;;;;;;;14.10;4.80;;;;;;;11.84;33.58;100679.53;79765;1298;3014112;-70
2023/10/11 10:41:33;;;;;;;8.40;4.10;;;;;;;11.93;33.36;100683.48;79717;1294;3011634;-70
2023/10/11 10:44:16;;;;;;;7.90;3.80;;;;;;;11.94;32.56;100678.35;78269;1298;3050164;-65
2023/10/11 10:46:59;;;;;;;8.80;4.40;;;;;;;11.94;31.83;100676.63;78690;1298;3052240;-69
2023/10/11 10:49:42;;;;;;;;;;;;;;;12.09;32.48;100674.34;78416;1298;3052634;-69
2023/10/11 10:52:15;;;;;;;8.80;4.50;;;;;;;11.93;32.34;100678.91;78594;1296;3069608;-71
2023/10/11 10:55:04;;;;;;;7.20;3.60;;;;;;;11.87;32.41;100677.46;79644;1298;3011564;-66
2023/10/11 10:57:41;;;;;;;12.80;4.00;;;;;;;11.92;32.67;100677.39;78389;1298;3058587;-72
2023/10/11 11:00:22;;;;;;;9.50;4.20;;;;;;;12.10;33.61;100674.28;78390;1298;3049309;-67
2023/10/11 11:02:50;;;;;;;8.10;4.20;;;;;;;12.21;33.68;100678.69;78188;1298;3055285;-66
2023/10/11 11:05:24;;;;;;;10.20;4.70;;;;;;;12.27;33.37;100676.33;79618;1301;3013270;-62
2023/10/11 11:07:52;;;;;;;9.00;4.60;;;;;;;12.31;32.90;100675.23;78538;1298;3052926;-62
2023/10/11 11:10:20;;;;;;;7.80;3.60;;;;;;;12.34;32.75;100672.63;79747;1298;3018635;-66
2023/10/11 11:12:49;;;;;;;12.30;4.40;;;;;;;12.34;32.97;100669.96;79657;1295;3011910;-66
2023/10/11 11:15:23;;;;;;;10.10;4.70;;;;;;;12.36;32.63;100674.09;78292;1298;3049726;-68
2023/10/11 11:17:50;;;;;;;10.20;4.10;;;;;;;12.38;32.99;100670.85;79565;1295;3011453;-74
2023/10/11 12:56:32;;;;;;;4.80;2.20;;;;;;;13.87;26.90;100651.34;80425;1298;3012140;-61
2023/10/11 12:58:59;;;;;;;5.80;2.00;;;;;;;13.79;26.63;100647.73;79356;1298;3013319;-68
2023/10/11 13:01:36;;;;;;;4.30;1.90;;;;;;;13.90;26.82;100650.84;79523;1301;3011965;-67
2023/10/11 13:04:17;;;;;;;5.20;2.40;;;;;;;13.81;26.81;100645.88;78275;1301;3054049;-68
2023/10/11 13:06:49;;;;;;;6.20;1.70;;;;;;;13.57;27.35;100642.05;78248;1300;3069601;-65
2023/10/11 13:09:27;;;;;;;4.70;1.90;;;;;;;13.48;27.56;100637.61;77140;1294;6252624;-69
2023/10/11 13:11:56;;;;;;;3.60;1.50;;;;;;;13.17;27.77;100639.57;78416;1297;3056585;-68
2023/10/11 13:14:23;;;;;;;3.10;1.50;;;;;;;12.86;28.25;100642.40;79691;1295;3013487;-67
2023/10/11 13:16:55;;;;;;;4.30;1.80;;;;;;;12.89;28.01;100639.64;79725;1294;3011677;-67
2023/10/11 13:19:24;;;;;;;4.20;1.50;;;;;;;13.15;27.92;100634.79;78320;1297;3050765;-68
2023/10/11 13:21:54;;;;;;;5.30;1.30;;;;;;;13.23;26.93;100633.50;79706;1297;3012849;-63
2023/10/11 13:24:24;;;;;;;3.60;1.30;;;;;;;13.05;26.15;100636.52;78392;1301;3069662;-66
2023/10/11 13:26:51;;;;;;;6.60;1.60;;;;;;;13.14;26.39;100635.55;79717;1296;3013742;-65
2023/10/11 13:29:21;;;;;;;3.00;1.20;;;;;;;13.09;25.99;100633.33;79065;1294;3011555;-61
2023/10/11 13:31:53;;;;;;;5.50;1.70;;;;;;;13.09;25.75;100635.75;79666;1295;3013010;-65
2023/10/11 13:34:24;;;;;;;3.40;1.40;;;;;;;13.14;26.32;100636.22;78189;1299;3050780;-69
2023/10/11 13:36:51;;;;;;;3.90;1.30;;;;;;;13.32;26.32;100634.95;79633;1297;3011701;-68
2023/10/11 13:39:25;;;;;;;5.30;1.50;;;;;;;13.31;26.77;100630.79;78242;1301;3052204;-66
2023/10/11 13:41:57;;;;;;;2.40;1.30;;;;;;;13.33;27.33;100628.36;79491;1295;3011820;-66
2023/10/11 13:44:25;;;;;;;5.00;1.80;;;;;;;13.45;27.84;100626.73;78297;1298;3051586;-64
2023/10/11 13:46:53;;;;;;;27.80;2.80;;;;;;;13.52;28.26;100621.92;79728;1297;3012920;-65